地図

経路データ

SID SEASON NUMBER BASIN SUBBASIN NAME ISO_TIME NATURE LAT LON WMO_WIND WMO_PRES WMO_AGENCY TRACK_TYPE DIST2LAND LANDFALL IFLAG USA_AGENCY USA_ATCF_ID USA_LAT USA_LON USA_RECORD USA_STATUS USA_WIND USA_PRES USA_SSHS USA_R34_NE USA_R34_SE USA_R34_SW USA_R34_NW USA_R50_NE USA_R50_SE USA_R50_SW USA_R50_NW USA_R64_NE USA_R64_SE USA_R64_SW USA_R64_NW USA_POCI USA_ROCI USA_RMW USA_EYE TOKYO_LAT TOKYO_LON TOKYO_GRADE TOKYO_WIND TOKYO_PRES TOKYO_R50_DIR TOKYO_R50_LONG TOKYO_R50_SHORT TOKYO_R30_DIR TOKYO_R30_LONG TOKYO_R30_SHORT TOKYO_LAND CMA_LAT CMA_LON CMA_CAT CMA_WIND CMA_PRES HKO_LAT HKO_LON HKO_CAT HKO_WIND HKO_PRES NEWDELHI_LAT NEWDELHI_LON NEWDELHI_GRADE NEWDELHI_WIND NEWDELHI_PRES NEWDELHI_CI NEWDELHI_DP NEWDELHI_POCI REUNION_LAT REUNION_LON REUNION_TYPE REUNION_WIND REUNION_PRES REUNION_TNUM REUNION_CI REUNION_RMW REUNION_R34_NE REUNION_R34_SE REUNION_R34_SW REUNION_R34_NW REUNION_R50_NE REUNION_R50_SE REUNION_R50_SW REUNION_R50_NW REUNION_R64_NE REUNION_R64_SE REUNION_R64_SW REUNION_R64_NW BOM_LAT BOM_LON BOM_TYPE BOM_WIND BOM_PRES BOM_TNUM BOM_CI BOM_RMW BOM_R34_NE BOM_R34_SE BOM_R34_SW BOM_R34_NW BOM_R50_NE BOM_R50_SE BOM_R50_SW BOM_R50_NW BOM_R64_NE BOM_R64_SE BOM_R64_SW BOM_R64_NW BOM_ROCI BOM_POCI BOM_EYE BOM_POS_METHOD BOM_PRES_METHOD NADI_LAT NADI_LON NADI_CAT NADI_WIND NADI_PRES WELLINGTON_LAT WELLINGTON_LON WELLINGTON_WIND WELLINGTON_PRES DS824_LAT DS824_LON DS824_STAGE DS824_WIND DS824_PRES TD9636_LAT TD9636_LON TD9636_STAGE TD9636_WIND TD9636_PRES TD9635_LAT TD9635_LON TD9635_WIND TD9635_PRES TD9635_ROCI NEUMANN_LAT NEUMANN_LON NEUMANN_CLASS NEUMANN_WIND NEUMANN_PRES MLC_LAT MLC_LON MLC_CLASS MLC_WIND MLC_PRES USA_GUST BOM_GUST BOM_GUST_PER REUNION_GUST REUNION_GUST_PER USA_SEAHGT USA_SEARAD_NE USA_SEARAD_SE USA_SEARAD_SW USA_SEARAD_NW STORM_SPEED STORM_DIR
1979344S12170 1980 115 SP MM OFA 1979-12-09 12:00:00 TS -12.0000 170.000 30 997 wellington main 459 459 ________O___O_ -1 -12.0000 170.000 30 997 -12.0000 170.000 TC 20 14 99
1979344S12170 1980 115 SP MM OFA 1979-12-09 15:00:00 TS -12.1147 170.716 main 506 506 ________P___P_ -1 -12.1398 170.882 30 997 -12.0896 170.550 TC 20 15 99
1979344S12170 1980 115 SP MM OFA 1979-12-09 18:00:00 TS -12.2363 171.531 main 569 569 ________P___O_ -1 -12.2726 171.761 30 997 -12.2000 171.300 TC 20 18 98
1979344S12170 1980 115 SP MM OFA 1979-12-09 21:00:00 TS -12.3686 172.499 main 652 652 ________P___P_ -1 -12.3941 172.635 30 997 -12.3431 172.362 TC 22 19 98
1979344S12170 1980 115 SP MM OFA 1979-12-10 00:00:00 TS -12.5000 173.500 30 997 wellington main 705 644 ________O___O_ -1 -12.5000 173.500 30 997 -12.5000 173.500 TC 25 19 98
1979344S12170 1980 115 SP MM OFA 1979-12-10 03:00:00 TS -12.6241 174.397 main 636 571 ________P___P_ -1 -12.5912 174.356 30 997 -12.6569 174.438 TC 25 17 98
1979344S12170 1980 115 SP MM OFA 1979-12-10 06:00:00 TS -12.7441 175.257 main 564 507 ________P___O_ -1 -12.6881 175.215 30 997 -12.8000 175.300 TC 25 17 98
1979344S12170 1980 115 SP MM OFA 1979-12-10 09:00:00 TS -12.8502 176.113 main 497 448 ________P___P_ -1 -12.8160 176.091 30 997 -12.8844 176.135 TC 27 17 99
1979344S12170 1980 115 SP MM OFA 1979-12-10 12:00:00 TS -13.0000 177.000 30 997 wellington main 444 387 ________O___O_ -1 -13.0000 177.000 30 997 -13.0000 177.000 TC 30 18 102
1979344S12170 1980 115 SP MM OFA 1979-12-10 15:00:00 TS -13.2234 177.957 main 382 317 ________P___P_ -1 -13.2419 177.937 31 996 -13.2049 177.978 TC 30 20 105
1979344S12170 1980 115 SP MM OFA 1979-12-10 18:00:00 TS -13.5215 178.956 main 314 257 ________P___O_ -1 -13.5431 178.912 32 996 -13.5000 179.000 TC 30 21 109
1979344S12170 1980 115 SP MM OFA 1979-12-10 21:00:00 TS -13.8835 179.951 main 257 236 ________P___P_ -1 -13.8977 179.931 33 995 -13.8692 179.970 TC 30 21 111
1979344S12170 1980 115 SP MM OFA 1979-12-11 00:00:00 TS -14.3000 181.000 35 995 wellington main 243 243 ________O___O_ -1 -14.3000 -179.000 35 995 -14.3000 -179.000 TC 30 23 111
1979344S12170 1980 115 SP MM OFA 1979-12-11 03:00:00 TS -14.7089 182.154 main 298 298 ________P___P_ -1 -14.6829 -177.869 37 993 -14.7349 -177.822 TC 32 24 111
1979344S12170 1980 115 SP MM OFA 1979-12-11 06:00:00 TS -15.1573 183.355 main 391 371 ________P___O_ -1 -15.1147 -176.691 40 991 -15.2000 -176.600 TC 35 25 112
1979344S12170 1980 115 SP MM OFA 1979-12-11 09:00:00 TS -15.6341 184.533 main 371 322 ________P___P_ -1 -15.6139 -175.493 42 989 -15.6543 -175.441 TC 35 25 115
1979344S12170 1980 115 SP MM OFA 1979-12-11 12:00:00 TS -16.2000 185.700 45 987 wellington main 324 317 ________O___O_ -1 -16.2000 -174.300 45 987 -16.2000 -174.300 TC 35 26 120
1979344S12170 1980 115 SP MM OFA 1979-12-11 15:00:00 TS -16.9243 186.862 main 351 351 ________P___P_ -1 -16.9442 -173.126 47 985 -16.9044 -173.150 TC 37 27 125
1979344S12170 1980 115 SP MM OFA 1979-12-11 18:00:00 TS -17.7317 188.020 main 437 437 ________P___O_ -1 -17.7633 -171.960 50 983 -17.7000 -172.000 TC 40 28 126
1979344S12170 1980 115 SP MM OFA 1979-12-11 21:00:00 TS -18.5565 189.180 main 557 557 ________P___P_ -1 -18.5758 -170.813 52 981 -18.5372 -170.828 TC 42 27 126
1979344S12170 1980 115 SP MM OFA 1979-12-12 00:00:00 TS -19.3000 190.300 55 980 wellington main 670 670 ________O___O_ -1 -19.3000 -169.700 55 980 -19.3000 -169.700 TC 45 24 123
1979344S12170 1980 115 SP MM OFA 1979-12-12 03:00:00 TS -19.8583 191.330 main 777 777 ________P___P_ -1 -19.8501 -168.656 52 981 -19.8664 -168.684 TC 42 22 118
1979344S12170 1980 115 SP MM OFA 1979-12-12 06:00:00 TS -20.3010 192.327 main 870 870 ________P___O_ -1 -20.3021 -167.645 50 983 -20.3000 -167.700 TC 40 20 114
1979344S12170 1980 115 SP MM OFA 1979-12-12 09:00:00 TS -20.6821 193.327 main 967 967 ________P___P_ -1 -20.6782 -166.638 47 985 -20.6859 -166.709 TC 37 21 110
1979344S12170 1980 115 SP MM OFA 1979-12-12 12:00:00 TS -21.0000 194.400 45 987 wellington main 1067 1067 ________O___O_ -1 -21.0000 -165.600 45 987 -21.0000 -165.600 TC 35 23 106
1979344S12170 1980 115 SP MM OFA 1979-12-12 15:00:00 TS -21.2957 195.667 main 1185 1185 ________P___P_ -1 -21.3262 -164.421 43 987 -21.2652 -164.244 TC 35 25 103
1979344S12170 1980 115 SP MM OFA 1979-12-12 18:00:00 TS -21.5500 196.991 main 1307 1307 ________P___O_ -1 -21.6001 -163.218 42 988 -21.5000 -162.800 TC 35 25 102
1979344S12170 1980 115 SP MM OFA 1979-12-12 21:00:00 TS -21.7985 198.314 main 1426 1426 ________P___P_ -1 -21.8235 -162.055 41 989 -21.7736 -161.316 TC 32 23 101
1979344S12170 1980 115 SP MM OFA 1979-12-13 00:00:00 TS -22.0000 199.450 40 990 wellington main 1531 1531 ________O___O_ -1 -22.0000 -161.000 40 990 -22.0000 -160.100 TC 30 18 101
1979344S12170 1980 115 SP MM OFA 1979-12-13 03:00:00 TS -22.1469 200.234 main 1605 1605 ________P___P_ -1 -22.1733 -160.053 37 991 -22.1204 -159.479 TC 30 13 101
1979344S12170 1980 115 SP MM OFA 1979-12-13 06:00:00 TS -22.2513 200.835 main 1669 1669 ________P___O_ -1 -22.3026 -159.230 35 993 -22.2000 -159.100 TC 30 12 100
1979344S12170 1980 115 SP MM OFA 1979-12-13 09:00:00 TS -22.3517 201.473 main 1736 1736 ________P___P_ -1 -22.3807 -158.541 32 995 -22.3228 -158.513 TC 27 11 98
1979344S12170 1980 115 SP MM OFA 1979-12-13 12:00:00 TS -22.4000 202.000 30 997 wellington main 1781 1781 ________O___O_ -1 -22.4000 -158.000 30 997 -22.4000 -158.000 TC 25 8 92
1979344S12170 1980 115 SP MM OFA 1979-12-13 15:00:00 TS -22.3734 202.357 main 1816 1816 ________P___P_ -1 -22.3596 -157.581 30 997 -22.3872 -157.705 TC 25 6 78
1979344S12170 1980 115 SP MM OFA 1979-12-13 18:00:00 TS -22.2826 202.598 main 1829 1829 ________P___O_ -1 -22.2653 -157.304 30 997 -22.3000 -157.500 TC 25 5 63
1979344S12170 1980 115 SP MM OFA 1979-12-13 21:00:00 TS -22.1517 202.824 main 1841 1836 ________P___P_ -1 -22.1384 -157.125 30 997 -22.1650 -157.227 TC 25 5 53
1979344S12170 1980 115 SP MM OFA 1979-12-14 00:00:00 TS -22.0000 203.000 30 997 wellington main 1849 1849 ________O___O_ -1 -22.0000 -157.000 30 997 -22.0000 -157.000 TC 25 4 44
1979344S12170 1980 115 SP MM OFA 1979-12-14 03:00:00 TS -21.8622 203.125 main 1854 1849 ________P___P_ -1 -21.8819 -156.865 30 997 -21.8424 -156.885 TC 22 3 36
1979344S12170 1980 115 SP MM OFA 1979-12-14 06:00:00 TS -21.7286 203.215 main 1853 1853 ________P___O_ -1 -21.7572 -156.770 30 997 -21.7000 -156.800 TC 20 3 31
1979344S12170 1980 115 SP MM OFA 1979-12-14 09:00:00 TS -21.6142 203.285 main 1857 1857 ________P___P_ -1 -21.6288 -156.690 30 997 -21.5995 -156.740 TC 20 3 44
1979344S12170 1980 115 SP MM OFA 1979-12-14 12:00:00 TS -21.5000 203.450 30 997 wellington main 1862 1862 ________O___O_ -1 -21.5000 -156.600 30 997 -21.5000 -156.500 TC 20 6 65
1979344S12170 1980 115 SP MM OFA 1979-12-14 15:00:00 TS -21.3622 203.871 main 1904 1900 ________P___P_ -1 -21.3730 -156.480 30 997 -21.3513 -155.777 TC 20 8 70
1979344S12170 1980 115 SP MM OFA 1979-12-14 18:00:00 TS -21.2239 204.283 main 1934 1934 ________P___O_ -1 -21.2478 -156.335 30 997 -21.2000 -155.100 TC 20 6 64
1979344S12170 1980 115 SP MM OFA 1979-12-14 21:00:00 TS -21.1052 204.448 main 1939 1939 ________P___P_ -1 -21.1237 -156.172 30 997 -21.0868 -154.933 TC 20 3 35
1979344S12170 1980 115 SP MM OFA 1979-12-15 00:00:00 TS -21.0000 204.450 30 997 wellington main 1935 ________O___O_ -1 -21.0000 -156.000 30 997 -21.0000 -155.100 TC 20 2 0

デジタル台風データ・検索

IBTrACS Databaseについて

本データベースは、米国NOAAが公開する1842年以降の世界の熱帯低気圧のベストトラックデータアーカイブInternational Best Track Archive for Climate Stewardship (IBTrACS)を、ウェブで閲覧しやすい形式に変換したものです。

最終更新日:2021-10-21